Benton Harbor, MI

6:57 AM EDT on September 05, 2015 (GMT -0400)
Southwest Michigan Regional | | Change Station
CLOSE
Current Station
Airport
Location: Benton Harbor,
Elevation: 643 ft
Nearby Weather Stations

Elev 643 ft 42.13 °N, 86.43 °W | Updated 4 minutes ago

Clear
Clear
68 °F
Feels Like 68 °F
N
4
Wind Variable Wind from ESE

Today
High -- | Low -- °F
--% Chance of Precip.
Yesterday
High -- | Low -- °F
Precip. -- in
7:15 AM 8:13 PM
Waning Gibbous, 50% visible
Pressure 30.08 in
Visibility 7.0 miles
Clouds Clear
Dew Point 66 °F
Humidity 93%
Rainfall 0.00 in
Snow Depth Not available.
UV 0 out of 12
Pollen 9.10 out of 12
Air Quality Not available.
Flu Activity Not available.
METAR KBEH 051053Z AUTO 11003KT 7SM CLR 20/19 A3009 RMK AO2 SLP186 T02000189
Pressure 30.08 in
Visibility 7.0 miles
Clouds Clear
Dew Point 66 °F
Humidity 93%
Rainfall 0.00 in
Snow Depth Not available.
UV 0 out of 12
Pollen 9.10 out of 12
Air Quality Not available.
Flu Activity Not available.
METAR KBEH 051053Z AUTO 11003KT 7SM CLR 20/19 A3009 RMK AO2 SLP186 T02000189

10-Day Weather Forecast

×

Almanac

Astronomy

Sep. 05, 2015 Rise Set
Actual Time
Civil Twilight
Nautical Twilight
Astronomical Twilight
Moon
Length of Visible Light
Length of Day
Tomorrow will be .
, % of the Moon is Illuminated

Today's Extremes

State Highs State Lows

Community

WunderPhotos

Upload Photos

1,852,439 photos uploaded!

WunderBlogs® & News

Nearby

Air Quality

  Air Quality AQ Index Pollutant
Not available.

Snow Depth

Station Depth Elevation

Earthquake Activity

City Distance Mag. Time & Date
Minimum magnitude displayed is 2.5.

Coastal Water Temperatures

Place Temperature

Stations

Nearby Weather Stations

Station Location Temp. Windchill Dew Point Humidity Wind Precip. Elev Updated Type